sensor_id;sensor_type;location;lat;lon;timestamp;pressure;altitude;pressure_sealevel;temperature;humidity
48644;BME280;34928;37.302;-121.984;2023-03-25T00:07:37;102161.0;;;25.55;17.43
48644;BME280;34928;37.302;-121.984;2023-03-25T00:17:42;102171.0;;;25.82;17.51
48644;BME280;34928;37.302;-121.984;2023-03-25T00:27:48;102171.0;;;25.61;17.25
48644;BME280;34928;37.302;-121.984;2023-03-25T00:37:52;102183.0;;;25.16;17.62
48644;BME280;34928;37.302;-121.984;2023-03-25T00:47:57;102172.0;;;25.47;17.72
48644;BME280;34928;37.302;-121.984;2023-03-25T00:58:02;102178.0;;;26.37;18.20
48644;BME280;34928;37.302;-121.984;2023-03-25T01:08:07;102186.0;;;26.33;18.91
48644;BME280;34928;37.302;-121.984;2023-03-25T01:18:13;102184.0;;;26.79;18.49
48644;BME280;34928;37.302;-121.984;2023-03-25T01:28:18;102200.0;;;26.69;18.92
48644;BME280;34928;37.302;-121.984;2023-03-25T01:38:23;102201.0;;;27.17;18.68
48644;BME280;34928;37.302;-121.984;2023-03-25T01:48:30;102195.0;;;26.57;19.24
48644;BME280;34928;37.302;-121.984;2023-03-25T01:58:38;102183.0;;;27.23;19.04
48644;BME280;34928;37.302;-121.984;2023-03-25T02:08:42;102187.0;;;26.27;19.07
48644;BME280;34928;37.302;-121.984;2023-03-25T02:18:58;102185.0;;;27.45;19.00
48644;BME280;34928;37.302;-121.984;2023-03-25T02:29:12;102187.0;;;27.12;18.92
48644;BME280;34928;37.302;-121.984;2023-03-25T02:39:25;102190.0;;;27.75;19.21
48644;BME280;34928;37.302;-121.984;2023-03-25T02:49:35;102204.0;;;27.89;19.20
48644;BME280;34928;37.302;-121.984;2023-03-25T02:59:44;102194.0;;;27.99;19.05
48644;BME280;34928;37.302;-121.984;2023-03-25T03:09:52;102212.0;;;27.68;19.29
48644;BME280;34928;37.302;-121.984;2023-03-25T03:20:12;102224.0;;;27.85;19.27
48644;BME280;34928;37.302;-121.984;2023-03-25T03:30:24;102233.0;;;27.50;19.66
48644;BME280;34928;37.302;-121.984;2023-03-25T03:40:29;102224.0;;;27.99;19.51
48644;BME280;34928;37.302;-121.984;2023-03-25T03:50:37;102216.0;;;27.81;19.27
48644;BME280;34928;37.302;-121.984;2023-03-25T04:00:45;102212.0;;;27.10;18.50
48644;BME280;34928;37.302;-121.984;2023-03-25T04:10:56;102223.0;;;27.81;19.23
48644;BME280;34928;37.302;-121.984;2023-03-25T04:21:02;102225.0;;;27.06;19.29
48644;BME280;34928;37.302;-121.984;2023-03-25T04:31:12;102230.0;;;28.05;19.17
48644;BME280;34928;37.302;-121.984;2023-03-25T04:41:17;102224.0;;;27.97;19.06
48644;BME280;34928;37.302;-121.984;2023-03-25T04:51:22;102251.0;;;27.70;19.25
48644;BME280;34928;37.302;-121.984;2023-03-25T05:01:32;102263.0;;;27.73;19.21
48644;BME280;34928;37.302;-121.984;2023-03-25T05:11:38;102259.0;;;27.41;19.51
48644;BME280;34928;37.302;-121.984;2023-03-25T05:21:43;102251.0;;;27.43;19.23
48644;BME280;34928;37.302;-121.984;2023-03-25T05:31:47;102246.0;;;27.49;19.36
48644;BME280;34928;37.302;-121.984;2023-03-25T05:41:52;102250.0;;;27.53;19.17
48644;BME280;34928;37.302;-121.984;2023-03-25T05:51:58;102244.0;;;27.47;19.04
48644;BME280;34928;37.302;-121.984;2023-03-25T06:02:02;102237.0;;;26.76;18.76
48644;BME280;34928;37.302;-121.984;2023-03-25T06:12:07;102233.0;;;27.46;19.55
48644;BME280;34928;37.302;-121.984;2023-03-25T06:22:13;102237.0;;;27.34;19.73
48644;BME280;34928;37.302;-121.984;2023-03-25T06:32:17;102228.0;;;27.27;19.89
48644;BME280;34928;37.302;-121.984;2023-03-25T06:42:22;102226.0;;;27.16;20.05
48644;BME280;34928;37.302;-121.984;2023-03-25T06:52:27;102226.0;;;26.93;20.18
48644;BME280;34928;37.302;-121.984;2023-03-25T07:02:32;102228.0;;;27.04;20.32
48644;BME280;34928;37.302;-121.984;2023-03-25T07:12:38;102218.0;;;26.90;20.40
48644;BME280;34928;37.302;-121.984;2023-03-25T07:22:42;102206.0;;;26.55;20.48
48644;BME280;34928;37.302;-121.984;2023-03-25T07:32:47;102197.0;;;26.73;20.47
48644;BME280;34928;37.302;-121.984;2023-03-25T07:42:52;102197.0;;;26.64;20.50
48644;BME280;34928;37.302;-121.984;2023-03-25T07:52:59;102205.0;;;26.51;20.57
48644;BME280;34928;37.302;-121.984;2023-03-25T08:03:02;102189.0;;;26.49;20.72
48644;BME280;34928;37.302;-121.984;2023-03-25T08:13:07;102180.0;;;26.37;20.71
48644;BME280;34928;37.302;-121.984;2023-03-25T08:23:18;102167.0;;;26.24;20.78
48644;BME280;34928;37.302;-121.984;2023-03-25T08:33:24;102172.0;;;26.11;20.83
48644;BME280;34928;37.302;-121.984;2023-03-25T08:43:27;102154.0;;;26.16;20.97
48644;BME280;34928;37.302;-121.984;2023-03-25T08:53:32;102158.0;;;25.83;21.02
48644;BME280;34928;37.302;-121.984;2023-03-25T09:03:37;102145.0;;;25.72;21.02
48644;BME280;34928;37.302;-121.984;2023-03-25T09:13:42;102142.0;;;25.61;21.07
48644;BME280;34928;37.302;-121.984;2023-03-25T09:23:48;102138.0;;;25.97;21.06
48644;BME280;34928;37.302;-121.984;2023-03-25T09:33:53;102134.0;;;25.15;21.47
48644;BME280;34928;37.302;-121.984;2023-03-25T09:44:05;102115.0;;;25.49;21.08
48644;BME280;34928;37.302;-121.984;2023-03-25T09:54:21;102104.0;;;26.05;20.90
48644;BME280;34928;37.302;-121.984;2023-03-25T10:15:03;102075.0;;;25.92;20.98
48644;BME280;34928;37.302;-121.984;2023-03-25T10:25:16;102066.0;;;25.53;21.01
48644;BME280;34928;37.302;-121.984;2023-03-25T10:35:24;102060.0;;;25.32;21.08
48644;BME280;34928;37.302;-121.984;2023-03-25T10:45:34;102054.0;;;25.75;21.06
48644;BME280;34928;37.302;-121.984;2023-03-25T10:55:38;102057.0;;;25.29;21.15
48644;BME280;34928;37.302;-121.984;2023-03-25T11:05:42;102049.0;;;25.43;21.18
48644;BME280;34928;37.302;-121.984;2023-03-25T11:15:47;102049.0;;;25.30;21.25
48644;BME280;34928;37.302;-121.984;2023-03-25T11:25:54;102039.0;;;25.20;21.31
48644;BME280;34928;37.302;-121.984;2023-03-25T11:36:17;102033.0;;;25.12;21.28
48644;BME280;34928;37.302;-121.984;2023-03-25T11:46:22;102034.0;;;24.93;21.36
48644;BME280;34928;37.302;-121.984;2023-03-25T11:56:31;102032.0;;;24.90;21.33
48644;BME280;34928;37.302;-121.984;2023-03-25T12:06:52;102036.0;;;24.70;21.44
48644;BME280;34928;37.302;-121.984;2023-03-25T12:17:03;102038.0;;;24.68;21.37
48644;BME280;34928;37.302;-121.984;2023-03-25T12:27:19;102040.0;;;24.67;21.43
48644;BME280;34928;37.302;-121.984;2023-03-25T12:37:33;102044.0;;;23.28;20.91
48644;BME280;34928;37.302;-121.984;2023-03-25T12:47:44;102036.0;;;24.18;21.71
48644;BME280;34928;37.302;-121.984;2023-03-25T12:58:03;102032.0;;;24.90;21.53
48644;BME280;34928;37.302;-121.984;2023-03-25T13:08:16;102026.0;;;24.95;21.44
48644;BME280;34928;37.302;-121.984;2023-03-25T13:18:28;102022.0;;;24.91;21.49
48644;BME280;34928;37.302;-121.984;2023-03-25T13:28:37;102030.0;;;25.57;21.21
48644;BME280;34928;37.302;-121.984;2023-03-25T13:38:45;102037.0;;;25.41;21.51
48644;BME280;34928;37.302;-121.984;2023-03-25T13:48:57;102041.0;;;26.22;21.79
48644;BME280;34928;37.302;-121.984;2023-03-25T13:59:16;102049.0;;;25.44;21.72
48644;BME280;34928;37.302;-121.984;2023-03-25T14:19:46;102052.0;;;25.88;21.23
48644;BME280;34928;37.302;-121.984;2023-03-25T14:29:55;102056.0;;;26.25;20.63
48644;BME280;34928;37.302;-121.984;2023-03-25T14:50:31;102073.0;;;25.71;20.45
48644;BME280;34928;37.302;-121.984;2023-03-25T15:00:42;102069.0;;;25.08;17.40
48644;BME280;34928;37.302;-121.984;2023-03-25T15:10:50;102074.0;;;25.85;19.74
48644;BME280;34928;37.302;-121.984;2023-03-25T15:21:11;102072.0;;;25.53;19.24
48644;BME280;34928;37.302;-121.984;2023-03-25T15:52:08;102074.0;;;23.79;20.64
48644;BME280;34928;37.302;-121.984;2023-03-25T16:02:24;102075.0;;;24.87;20.47
48644;BME280;34928;37.302;-121.984;2023-03-25T16:12:33;102079.0;;;25.24;20.38
48644;BME280;34928;37.302;-121.984;2023-03-25T16:22:41;102074.0;;;25.31;20.60
48644;BME280;34928;37.302;-121.984;2023-03-25T16:32:48;102071.0;;;25.49;20.86
48644;BME280;34928;37.302;-121.984;2023-03-25T16:42:53;102063.0;;;25.41;21.30
48644;BME280;34928;37.302;-121.984;2023-03-25T16:52:58;102050.0;;;25.69;21.27
48644;BME280;34928;37.302;-121.984;2023-03-25T17:03:02;102049.0;;;25.43;22.24
48644;BME280;34928;37.302;-121.984;2023-03-25T17:13:08;102047.0;;;25.80;21.88
48644;BME280;34928;37.302;-121.984;2023-03-25T17:23:20;102045.0;;;25.58;21.53
48644;BME280;34928;37.302;-121.984;2023-03-25T17:33:33;102039.0;;;26.02;21.39
48644;BME280;34928;37.302;-121.984;2023-03-25T17:43:41;102041.0;;;25.91;21.29
48644;BME280;34928;37.302;-121.984;2023-03-25T17:53:48;102034.0;;;25.63;21.10
48644;BME280;34928;37.302;-121.984;2023-03-25T18:03:52;102025.0;;;25.43;20.93
48644;BME280;34928;37.302;-121.984;2023-03-25T18:13:57;102023.0;;;25.69;20.72
48644;BME280;34928;37.302;-121.984;2023-03-25T18:24:02;102010.0;;;25.80;20.49
48644;BME280;34928;37.302;-121.984;2023-03-25T18:34:07;101994.0;;;25.77;20.54
48644;BME280;34928;37.302;-121.984;2023-03-25T18:44:12;101977.0;;;25.88;20.32
48644;BME280;34928;37.302;-121.984;2023-03-25T18:54:18;101971.0;;;25.87;20.27
48644;BME280;34928;37.302;-121.984;2023-03-25T19:04:22;101960.0;;;24.62;17.89
48644;BME280;34928;37.302;-121.984;2023-03-25T19:14:27;101965.0;;;24.30;17.55
48644;BME280;34928;37.302;-121.984;2023-03-25T19:24:32;101944.0;;;24.21;16.49
48644;BME280;34928;37.302;-121.984;2023-03-25T19:34:37;101935.0;;;24.36;16.91
48644;BME280;34928;37.302;-121.984;2023-03-25T19:44:42;101926.0;;;24.21;16.52
48644;BME280;34928;37.302;-121.984;2023-03-25T19:54:47;101914.0;;;23.37;15.52
48644;BME280;34928;37.302;-121.984;2023-03-25T20:04:52;101905.0;;;24.34;14.99
48644;BME280;34928;37.302;-121.984;2023-03-25T20:14:57;101888.0;;;24.59;15.11
48644;BME280;34928;37.302;-121.984;2023-03-25T20:25:03;101878.0;;;24.42;14.63
48644;BME280;34928;37.302;-121.984;2023-03-25T20:35:08;101863.0;;;24.29;14.22
48644;BME280;34928;37.302;-121.984;2023-03-25T20:45:15;101859.0;;;24.12;14.26
48644;BME280;34928;37.302;-121.984;2023-03-25T20:55:23;101853.0;;;23.30;14.16
48644;BME280;34928;37.302;-121.984;2023-03-25T21:05:27;101831.0;;;23.56;14.20
48644;BME280;34928;37.302;-121.984;2023-03-25T21:15:34;101828.0;;;24.31;13.93
48644;BME280;34928;37.302;-121.984;2023-03-25T21:25:42;101815.0;;;24.09;14.22
48644;BME280;34928;37.302;-121.984;2023-03-25T21:35:47;101804.0;;;24.57;13.61
48644;BME280;34928;37.302;-121.984;2023-03-25T21:45:52;101789.0;;;24.20;13.01
48644;BME280;34928;37.302;-121.984;2023-03-25T21:55:59;101777.0;;;23.61;13.04
48644;BME280;34928;37.302;-121.984;2023-03-25T22:06:02;101763.0;;;24.54;12.56
48644;BME280;34928;37.302;-121.984;2023-03-25T22:16:09;101757.0;;;24.47;12.59
48644;BME280;34928;37.302;-121.984;2023-03-25T22:26:14;101752.0;;;24.74;12.47
48644;BME280;34928;37.302;-121.984;2023-03-25T22:36:17;101742.0;;;23.66;13.21
48644;BME280;34928;37.302;-121.984;2023-03-25T22:46:23;101733.0;;;23.63;13.35
48644;BME280;34928;37.302;-121.984;2023-03-25T22:56:27;101712.0;;;24.19;13.77
48644;BME280;34928;37.302;-121.984;2023-03-25T23:06:33;101699.0;;;25.02;13.03
48644;BME280;34928;37.302;-121.984;2023-03-25T23:16:37;101700.0;;;24.55;13.02
48644;BME280;34928;37.302;-121.984;2023-03-25T23:26:42;101690.0;;;25.04;12.81
48644;BME280;34928;37.302;-121.984;2023-03-25T23:36:47;101683.0;;;24.92;12.74
48644;BME280;34928;37.302;-121.984;2023-03-25T23:46:54;101678.0;;;25.20;12.86
48644;BME280;34928;37.302;-121.984;2023-03-25T23:56:57;101668.0;;;25.38;13.19
